Time;durP1;ratioP1;P1;durP2;ratioP2;P2;SDS_P1;SDS_P2;PMS_P1;PMS_P2;Temp;Humidity;BMP_temperature;BMP_pressure;BME280_temperature;BME280_humidity;BME280_pressure;Samples;Min_cycle;Max_cycle;Signal;HPM_P1;HPM_P2
2021/12/01 00:00:49;;;;;;;0.28;0.28;;;;;;;3.93;86.94;95229.47;4809500;29;20043;-50
2021/12/01 00:03:16;;;;;;;0.55;0.30;;;;;;;3.97;86.99;95209.84;4824406;29;20133;-47
2021/12/01 00:05:44;;;;;;;0.30;0.30;;;;;;;3.91;87.34;95213.75;4827238;29;20046;-45
2021/12/01 00:08:12;;;;;;;0.25;0.25;;;;;;;3.93;87.44;95200.03;4823292;29;20081;-51
2021/12/01 00:10:39;;;;;;;0.38;0.20;;;;;;;3.93;87.56;95208.88;4831633;29;20125;-47
2021/12/01 00:13:09;;;;;;;0.63;0.40;;;;;;;3.90;87.49;95192.63;4826096;29;20062;-49
2021/12/01 00:15:37;;;;;;;0.38;0.25;;;;;;;3.91;87.85;95204.94;4826200;29;20050;-50
2021/12/01 00:18:04;;;;;;;0.63;0.30;;;;;;;3.97;87.64;95193.78;4835752;29;20046;-50
2021/12/01 00:20:31;;;;;;;0.20;0.20;;;;;;;3.88;88.23;95200.97;4828275;29;20421;-48
2021/12/01 00:22:59;;;;;;;0.10;0.10;;;;;;;3.81;89.12;95203.31;4827267;29;20175;-49
2021/12/01 00:25:30;;;;;;;0.20;0.20;;;;;;;3.90;88.98;95188.09;4825241;29;20046;-47
2021/12/01 00:27:58;;;;;;;0.43;0.20;;;;;;;3.92;89.17;95188.53;4830655;29;20118;-47
2021/12/01 00:30:25;;;;;;;0.28;0.28;;;;;;;3.91;89.31;95186.19;4823866;29;20532;-54
2021/12/01 00:32:54;;;;;;;0.20;0.20;;;;;;;3.83;89.68;95190.38;4840631;29;20058;-48
2021/12/01 00:35:22;;;;;;;0.93;0.20;;;;;;;3.80;90.68;95191.00;4836816;29;20416;-47
2021/12/01 00:37:50;;;;;;;0.52;0.20;;;;;;;3.82;90.67;95191.50;4830766;29;20152;-46
2021/12/01 00:40:17;;;;;;;0.20;0.20;;;;;;;3.89;90.78;95172.31;4827532;29;20392;-48
2021/12/01 00:42:44;;;;;;;0.10;0.10;;;;;;;3.89;90.81;95173.09;4834593;29;20047;-52
2021/12/01 00:45:20;;;;;;;0.10;0.10;;;;;;;3.81;90.49;95171.19;4834279;29;20115;-48
2021/12/01 00:47:52;;;;;;;0.82;0.20;;;;;;;3.82;90.86;95191.50;4838589;29;20405;-49
2021/12/01 00:50:33;;;;;;;0.47;0.20;;;;;;;3.83;90.75;95185.03;4823950;29;20509;-51
2021/12/01 00:53:04;;;;;;;0.17;0.17;;;;;;;3.84;90.50;95173.25;4823840;29;20080;-52
2021/12/01 00:55:32;;;;;;;0.20;0.20;;;;;;;3.91;89.97;95178.16;4823378;29;20516;-52
2021/12/01 00:58:00;;;;;;;0.10;0.10;;;;;;;3.99;89.68;95186.22;4831011;29;20521;-48
2021/12/01 01:00:29;;;;;;;0.10;0.10;;;;;;;3.98;89.48;95178.50;4834557;29;20050;-49
2021/12/01 01:02:57;;;;;;;0.13;0.10;;;;;;;3.94;89.45;95177.56;4828972;29;20050;-49
2021/12/01 01:05:25;;;;;;;0.20;0.10;;;;;;;4.03;88.60;95172.22;4830248;29;20053;-47
2021/12/01 01:07:53;;;;;;;0.10;0.10;;;;;;;4.08;88.16;95164.06;4830669;29;20137;-46
2021/12/01 01:18:44;;;;;;;0.20;0.17;;;;;;;4.25;86.41;95158.75;4826713;29;20150;-49
2021/12/01 01:21:13;;;;;;;0.10;0.10;;;;;;;4.22;86.14;95162.88;4827138;29;20050;-50
2021/12/01 01:23:41;;;;;;;0.10;0.10;;;;;;;4.27;85.42;95145.06;4825600;29;20058;-48
2021/12/01 01:26:11;;;;;;;0.40;0.20;;;;;;;4.26;85.13;95148.84;4826163;29;20460;-52
2021/12/01 01:28:39;;;;;;;0.50;0.20;;;;;;;4.30;85.10;95144.44;4823048;29;20056;-46
2021/12/01 01:31:06;;;;;;;0.10;0.10;;;;;;;4.32;84.82;95143.06;4834175;29;20116;-50
2021/12/01 01:33:33;;;;;;;0.38;0.20;;;;;;;4.35;84.64;95131.69;4828000;29;20107;-47
2021/12/01 01:36:01;;;;;;;0.20;0.20;;;;;;;4.41;84.63;95135.78;4832424;29;20046;-47
2021/12/01 01:38:31;;;;;;;0.20;0.20;;;;;;;4.43;83.96;95122.09;4841186;29;20416;-46
2021/12/01 01:41:00;;;;;;;0.28;0.13;;;;;;;4.42;84.10;95121.31;4827534;29;20390;-46
2021/12/01 01:43:28;;;;;;;0.20;0.20;;;;;;;4.42;84.37;95115.97;4830685;29;20057;-53
2021/12/01 01:45:56;;;;;;;0.20;0.20;;;;;;;4.49;84.06;95107.47;4827526;29;20050;-49
2021/12/01 01:48:31;;;;;;;0.85;0.20;;;;;;;4.44;83.93;95112.97;4829903;29;20428;-50
2021/12/01 01:51:04;;;;;;;0.20;0.20;;;;;;;4.54;83.93;95119.91;4831970;29;20497;-52
2021/12/01 01:53:34;;;;;;;;;;;;;;;4.51;84.03;95112.50;4841438;29;20060;-50
2021/12/01 01:56:04;;;;;;;0.10;0.10;;;;;;;4.55;83.85;95110.75;4835295;29;19930;-48
2021/12/01 01:58:36;;;;;;;0.30;0.20;;;;;;;4.57;83.85;95108.56;4823135;29;20099;-52
2021/12/01 02:01:11;;;;;;;0.20;0.20;;;;;;;4.51;83.89;95120.53;4825711;29;20046;-48
2021/12/01 02:03:41;;;;;;;0.28;0.20;;;;;;;4.57;83.56;95116.59;4821750;29;20081;-49
2021/12/01 02:06:10;;;;;;;0.10;0.10;;;;;;;4.58;83.82;95107.47;4826816;29;20046;-51
2021/12/01 02:08:40;;;;;;;0.10;0.10;;;;;;;4.57;83.64;95113.94;4830488;29;20048;-47
2021/12/01 02:11:12;;;;;;;0.20;0.13;;;;;;;4.62;83.71;95100.41;4823479;29;20085;-48
2021/12/01 02:13:41;;;;;;;0.10;0.10;;;;;;;4.58;83.57;95102.91;4824748;29;20056;-48
2021/12/01 02:16:09;;;;;;;0.10;0.10;;;;;;;4.60;83.76;95095.34;4825754;29;20457;-47
2021/12/01 02:18:38;;;;;;;0.13;0.10;;;;;;;4.63;83.21;95099.28;4822258;29;20054;-47
2021/12/01 02:21:14;;;;;;;0.20;0.20;;;;;;;4.65;83.37;95084.47;4820881;29;20054;-47
2021/12/01 02:23:47;;;;;;;0.10;0.10;;;;;;;4.69;83.44;95090.00;4824115;29;20095;-50
2021/12/01 02:26:17;;;;;;;0.20;0.15;;;;;;;4.77;83.03;95073.09;4828593;29;20042;-49
2021/12/01 02:28:47;;;;;;;0.50;0.28;;;;;;;4.66;82.67;95071.88;4825447;29;20054;-52
2021/12/01 02:31:15;;;;;;;0.10;0.10;;;;;;;4.67;82.68;95074.22;4829832;29;20046;-52
2021/12/01 02:33:43;;;;;;;0.10;0.10;;;;;;;4.66;82.81;95066.50;4822679;29;20131;-49
2021/12/01 02:36:11;;;;;;;0.10;0.10;;;;;;;4.69;82.63;95066.66;4829124;29;20129;-49
2021/12/01 02:38:41;;;;;;;0.28;0.15;;;;;;;4.70;82.82;95051.38;4825954;29;20050;-47
2021/12/01 02:41:09;;;;;;;0.20;0.20;;;;;;;4.70;82.50;95062.09;4824814;29;20129;-47
2021/12/01 02:43:37;;;;;;;0.25;0.10;;;;;;;4.71;82.57;95052.94;4834303;29;20393;-46
2021/12/01 02:46:04;;;;;;;0.30;0.30;;;;;;;4.72;82.63;95048.38;4828688;29;20497;-49
2021/12/01 02:48:35;;;;;;;0.20;0.10;;;;;;;4.67;81.85;95038.59;4829557;29;20413;-53
2021/12/01 02:51:05;;;;;;;0.73;0.10;;;;;;;4.73;82.42;95031.97;4829663;29;20701;-50
2021/12/01 02:53:32;;;;;;;0.10;0.00;;;;;;;4.69;82.31;95017.66;4832531;29;20050;-50
2021/12/01 02:56:03;;;;;;;0.35;0.20;;;;;;;4.74;82.59;95025.50;4828454;29;20503;-51
2021/12/01 02:58:32;;;;;;;0.15;0.15;;;;;;;4.69;82.26;95018.44;4836788;29;20577;-49
2021/12/01 03:01:15;;;;;;;0.10;0.10;;;;;;;4.70;82.33;95021.88;4825269;29;20611;-49
2021/12/01 03:03:43;;;;;;;0.00;0.00;;;;;;;4.71;82.34;95015.41;4830525;29;20349;-47
2021/12/01 03:06:11;;;;;;;0.10;0.00;;;;;;;4.75;82.26;95016.38;4835294;29;20050;-51
2021/12/01 03:08:43;;;;;;;1.67;0.10;;;;;;;4.66;82.35;95008.34;4829370;29;20049;-49
2021/12/01 03:11:10;;;;;;;0.20;0.20;;;;;;;4.68;82.93;95010.72;4829768;29;20046;-51
2021/12/01 03:13:38;;;;;;;0.05;0.05;;;;;;;4.75;82.23;95004.88;4835867;29;20110;-51
2021/12/01 03:16:05;;;;;;;0.00;0.00;;;;;;;4.72;82.55;95006.28;4836442;29;20051;-49
2021/12/01 03:18:33;;;;;;;0.10;0.10;;;;;;;4.76;82.03;95017.16;4834627;29;20070;-48
2021/12/01 03:21:00;;;;;;;0.22;0.13;;;;;;;4.75;81.94;95016.38;4826425;29;20053;-47
2021/12/01 03:23:28;;;;;;;0.10;0.10;;;;;;;4.81;82.19;95015.13;4832863;29;20455;-54
2021/12/01 03:25:55;;;;;;;0.10;0.10;;;;;;;4.75;81.93;95011.03;4833695;29;20042;-47
2021/12/01 03:28:22;;;;;;;0.10;0.10;;;;;;;4.77;81.99;95006.13;4834815;29;20054;-47
2021/12/01 03:30:49;;;;;;;0.30;0.30;;;;;;;4.72;81.71;95002.84;4843476;29;20112;-47
2021/12/01 03:33:19;;;;;;;0.17;0.10;;;;;;;4.83;81.74;94996.03;4841796;29;20415;-47
2021/12/01 03:35:48;;;;;;;0.20;0.20;;;;;;;4.87;82.07;95008.47;4825842;29;20042;-47
2021/12/01 03:38:17;;;;;;;0.13;0.13;;;;;;;4.80;82.02;94997.44;4831740;29;20054;-48
2021/12/01 03:40:44;;;;;;;0.40;0.40;;;;;;;4.79;81.86;94997.78;4829395;29;20129;-47
2021/12/01 03:43:12;;;;;;;0.17;0.17;;;;;;;4.79;82.08;94995.88;4824426;29;20049;-47
2021/12/01 03:45:39;;;;;;;0.30;0.28;;;;;;;4.79;82.11;94989.72;4826524;29;20125;-47
2021/12/01 03:48:06;;;;;;;0.20;0.20;;;;;;;4.74;81.98;94995.25;4824421;29;20053;-52
2021/12/01 03:50:35;;;;;;;0.25;0.20;;;;;;;4.81;81.88;94982.94;4828300;29;20065;-47
2021/12/01 03:53:02;;;;;;;0.28;0.20;;;;;;;4.85;82.12;94983.88;4857364;24;20046;-53
2021/12/01 03:55:29;;;;;;;0.45;0.40;;;;;;;4.84;82.16;94973.47;4848932;29;20050;-50
2021/12/01 03:57:56;;;;;;;0.65;0.32;;;;;;;4.86;81.95;94973.94;4842617;29;20423;-54
2021/12/01 04:00:23;;;;;;;0.60;0.30;;;;;;;4.86;82.15;94980.09;4841120;29;20050;-52
2021/12/01 04:02:50;;;;;;;0.40;0.22;;;;;;;4.97;81.73;94975.16;4832952;29;20416;-52
2021/12/01 04:05:17;;;;;;;0.55;0.38;;;;;;;4.91;81.88;94971.09;4837487;29;20042;-50
2021/12/01 04:07:44;;;;;;;0.82;0.30;;;;;;;4.99;82.26;94970.28;4824383;29;20144;-54
2021/12/01 04:10:14;;;;;;;0.28;0.28;;;;;;;4.76;83.48;94969.72;4823789;29;20515;-50
2021/12/01 04:12:42;;;;;;;0.32;0.25;;;;;;;4.75;84.17;94953.97;4833187;29;20073;-51
2021/12/01 04:15:11;;;;;;;0.38;0.20;;;;;;;4.77;83.34;94955.19;4838566;29;20129;-49
2021/12/01 04:17:39;;;;;;;0.60;0.30;;;;;;;4.84;83.61;94952.84;4815106;29;20052;-48
2021/12/01 04:20:08;;;;;;;0.20;0.20;;;;;;;4.79;84.00;94946.84;4840618;29;20061;-50
2021/12/01 04:22:35;;;;;;;0.30;0.30;;;;;;;4.83;83.63;94947.78;4837360;29;20050;-50
2021/12/01 04:25:03;;;;;;;0.30;0.20;;;;;;;4.86;83.50;94945.25;4828243;29;20114;-50
2021/12/01 04:27:31;;;;;;;0.30;0.30;;;;;;;5.05;82.53;94942.19;4825652;29;20058;-47
2021/12/01 04:29:58;;;;;;;0.50;0.30;;;;;;;4.95;82.77;94939.09;4839030;29;20149;-49
2021/12/01 04:32:25;;;;;;;0.35;0.32;;;;;;;4.81;82.98;94934.72;4836399;29;20058;-47
2021/12/01 04:34:52;;;;;;;0.38;0.30;;;;;;;4.79;83.32;94931.56;4824766;29;20077;-47
2021/12/01 04:37:19;;;;;;;0.30;0.30;;;;;;;4.81;83.06;94923.19;4829691;29;20057;-47
2021/12/01 04:39:47;;;;;;;1.27;0.38;;;;;;;4.88;82.55;94916.25;4841019;29;20058;-50
2021/12/01 04:42:14;;;;;;;0.30;0.30;;;;;;;4.79;82.99;94909.34;4835677;29;20106;-50
2021/12/01 04:44:41;;;;;;;0.22;0.22;;;;;;;4.85;82.95;94908.06;4837882;29;20141;-47
2021/12/01 04:47:12;;;;;;;0.30;0.30;;;;;;;4.89;82.55;94920.50;4830371;29;20054;-49
2021/12/01 04:49:40;;;;;;;0.20;0.20;;;;;;;4.92;82.52;94903.78;4838812;29;20065;-47
2021/12/01 04:52:10;;;;;;;0.70;0.50;;;;;;;4.96;82.55;94897.78;4829930;29;20041;-48
2021/12/01 04:54:38;;;;;;;0.20;0.20;;;;;;;5.19;81.76;94891.03;4836691;29;20512;-49
2021/12/01 04:57:06;;;;;;;0.50;0.30;;;;;;;5.09;81.59;94891.41;4827341;29;20050;-47
2021/12/01 04:59:34;;;;;;;0.30;0.30;;;;;;;5.08;81.65;94879.91;4841184;29;20046;-48
2021/12/01 05:02:01;;;;;;;0.20;0.20;;;;;;;4.76;82.49;94892.00;4839186;29;20046;-50
2021/12/01 05:04:28;;;;;;;1.23;0.40;;;;;;;4.77;82.91;94882.84;4822337;29;20050;-50
2021/12/01 05:06:56;;;;;;;0.45;0.32;;;;;;;4.93;82.00;94881.22;4822976;29;20146;-50
2021/12/01 05:09:23;;;;;;;0.57;0.30;;;;;;;5.05;81.78;94879.75;4832952;29;20077;-50
2021/12/01 05:11:50;;;;;;;0.22;0.20;;;;;;;4.87;82.18;94857.59;4826541;29;20084;-52
2021/12/01 05:14:18;;;;;;;0.70;0.45;;;;;;;4.92;81.52;94860.09;4821215;29;20531;-48
2021/12/01 05:16:46;;;;;;;0.45;0.45;;;;;;;4.89;82.69;94850.03;4837169;29;20464;-49
2021/12/01 05:19:13;;;;;;;0.70;0.57;;;;;;;4.91;81.99;94847.81;4840757;29;20068;-48
2021/12/01 05:21:41;;;;;;;1.17;0.50;;;;;;;4.98;81.65;94852.66;4839926;29;20052;-50
2021/12/01 05:24:08;;;;;;;0.35;0.30;;;;;;;5.02;81.99;94858.97;4839803;29;20136;-52
2021/12/01 05:26:35;;;;;;;0.55;0.40;;;;;;;5.02;82.28;94848.22;4834335;29;20556;-48
2021/12/01 05:29:04;;;;;;;0.90;0.60;;;;;;;4.88;82.94;94837.75;4840150;29;20412;-49
2021/12/01 05:31:31;;;;;;;1.10;0.65;;;;;;;5.02;82.40;94842.88;4830926;29;20055;-49
2021/12/01 05:33:58;;;;;;;0.68;0.40;;;;;;;4.95;82.78;94840.69;4832927;29;20054;-48
2021/12/01 05:36:26;;;;;;;0.30;0.30;;;;;;;4.89;83.07;94842.75;4840486;29;20069;-47
2021/12/01 05:38:53;;;;;;;0.40;0.40;;;;;;;4.84;82.87;94840.28;4840107;29;20050;-52
2021/12/01 05:41:20;;;;;;;0.88;0.50;;;;;;;4.89;83.29;94834.72;4806041;29;20058;-47
2021/12/01 05:43:47;;;;;;;0.40;0.40;;;;;;;4.85;83.14;94833.81;4821930;29;20046;-48
2021/12/01 05:46:14;;;;;;;0.60;0.40;;;;;;;4.97;83.24;94826.97;4834840;29;20045;-50
2021/12/01 05:48:42;;;;;;;0.38;0.30;;;;;;;4.99;83.04;94822.06;4839315;29;20062;-49
2021/12/01 05:51:09;;;;;;;1.13;0.73;;;;;;;4.85;83.39;94841.84;4835134;29;20457;-54
2021/12/01 05:53:36;;;;;;;1.25;0.47;;;;;;;4.98;83.70;94828.53;4822276;29;20091;-48
2021/12/01 05:56:04;;;;;;;0.50;0.43;;;;;;;4.69;86.17;94832.78;4834899;29;20168;-50
2021/12/01 05:58:30;;;;;;;0.70;0.40;;;;;;;4.63;87.96;94829.47;4830901;29;20049;-50
2021/12/01 06:00:58;;;;;;;0.75;0.45;;;;;;;4.85;87.42;94828.44;4822341;29;20058;-47
2021/12/01 06:03:25;;;;;;;1.48;0.63;;;;;;;4.52;89.21;94822.09;4824627;29;20042;-53
2021/12/01 06:05:52;;;;;;;1.10;0.55;;;;;;;4.51;89.46;94797.22;4825192;29;20125;-49
2021/12/01 06:08:19;;;;;;;2.00;0.50;;;;;;;4.60;88.49;94807.91;4829168;29;20050;-49
2021/12/01 06:10:46;;;;;;;2.80;0.70;;;;;;;4.51;89.76;94801.78;4841761;29;20428;-51
2021/12/01 06:13:17;;;;;;;2.17;0.50;;;;;;;4.48;90.79;94807.78;4835232;29;20047;-49
2021/12/01 06:15:50;;;;;;;2.90;0.90;;;;;;;4.49;91.45;94799.44;4832851;29;20530;-48
2021/12/01 06:18:18;;;;;;;1.80;0.60;;;;;;;4.44;92.18;94800.38;4819607;29;20117;-50
2021/12/01 06:20:46;;;;;;;1.35;0.60;;;;;;;4.50;91.43;94786.81;4835714;29;20050;-48
2021/12/01 06:23:13;;;;;;;1.10;0.50;;;;;;;4.54;91.37;94785.06;4826678;29;20097;-50
2021/12/01 06:25:41;;;;;;;1.38;0.60;;;;;;;4.34;92.78;94787.34;4834777;29;20054;-51
2021/12/01 06:28:09;;;;;;;2.50;0.65;;;;;;;4.64;91.29;94782.03;4831662;29;20572;-52
2021/12/01 06:30:38;;;;;;;0.55;0.50;;;;;;;4.59;90.81;94768.84;4827624;29;20419;-53
2021/12/01 06:33:06;;;;;;;1.00;0.50;;;;;;;4.49;91.17;94774.56;4828728;29;20038;-52
2021/12/01 06:35:34;;;;;;;1.63;0.70;;;;;;;4.41;92.04;94776.91;4828359;29;20061;-54
2021/12/01 06:38:03;;;;;;;1.17;0.77;;;;;;;4.63;90.53;94764.38;4828745;29;20067;-54
2021/12/01 06:40:31;;;;;;;1.05;0.60;;;;;;;4.65;90.45;94762.19;4837584;29;20046;-49
2021/12/01 06:42:58;;;;;;;1.88;0.70;;;;;;;4.72;90.70;94759.00;4832406;29;20048;-50
2021/12/01 06:45:25;;;;;;;5.03;1.98;;;;;;;4.73;89.40;94766.69;4842170;29;20050;-49
2021/12/01 06:47:52;;;;;;;1.30;0.77;;;;;;;4.62;89.54;94762.84;4832427;29;20103;-50
2021/12/01 06:50:19;;;;;;;1.45;0.82;;;;;;;4.60;89.72;94760.47;4832414;29;20110;-49
2021/12/01 06:52:47;;;;;;;3.55;0.90;;;;;;;4.55;90.14;94760.66;4838220;29;20046;-50
2021/12/01 06:55:14;;;;;;;2.63;0.85;;;;;;;4.51;90.33;94749.00;4834611;29;20109;-49
2021/12/01 06:57:41;;;;;;;1.77;0.70;;;;;;;4.58;90.77;94743.13;4824942;29;20070;-50
2021/12/01 07:00:11;;;;;;;1.38;0.80;;;;;;;4.55;89.86;94739.22;4835470;29;20060;-51
2021/12/01 07:02:38;;;;;;;1.67;0.85;;;;;;;4.80;88.89;94729.47;4837657;29;20056;-51
2021/12/01 07:05:07;;;;;;;1.70;0.70;;;;;;;4.79;89.54;94732.47;4823986;29;20058;-51
2021/12/01 07:07:34;;;;;;;2.88;0.80;;;;;;;4.99;87.84;94725.56;4834277;29;20132;-52
2021/12/01 07:10:04;;;;;;;1.85;1.05;;;;;;;4.84;88.94;94724.22;4834404;29;20053;-50
2021/12/01 07:12:31;;;;;;;1.70;0.90;;;;;;;5.07;87.88;94732.75;4842321;29;20060;-50
2021/12/01 07:14:58;;;;;;;1.10;0.63;;;;;;;4.82;87.39;94737.19;4841097;29;20050;-51
2021/12/01 07:17:25;;;;;;;3.45;0.95;;;;;;;4.67;88.65;94735.84;4842923;29;20567;-51
2021/12/01 07:19:52;;;;;;;2.08;0.82;;;;;;;4.69;89.36;94722.91;4840505;29;20080;-50
2021/12/01 07:22:19;;;;;;;1.60;0.80;;;;;;;4.41;91.36;94736.75;4839250;29;20038;-51
2021/12/01 07:24:45;;;;;;;1.17;0.80;;;;;;;4.83;88.37;94726.13;4825271;29;20054;-53
2021/12/01 07:27:14;;;;;;;1.30;0.80;;;;;;;4.96;87.73;94724.31;4847094;29;20042;-51
2021/12/01 07:29:42;;;;;;;2.38;0.70;;;;;;;4.82;87.43;94727.25;4837011;29;20046;-52
2021/12/01 07:32:10;;;;;;;0.70;0.50;;;;;;;5.03;86.77;94727.25;4839826;29;20489;-49
2021/12/01 07:34:42;;;;;;;1.02;0.60;;;;;;;4.81;86.32;94709.63;4836927;29;20070;-49
2021/12/01 07:37:14;;;;;;;0.90;0.60;;;;;;;4.83;85.93;94718.09;4842279;29;20158;-50
2021/12/01 07:39:43;;;;;;;1.10;0.70;;;;;;;4.85;84.89;94715.09;4842509;29;20054;-53
2021/12/01 07:42:12;;;;;;;1.17;0.65;;;;;;;4.81;84.54;94714.97;4826020;29;20293;-51
2021/12/01 07:44:39;;;;;;;1.38;0.77;;;;;;;4.81;83.75;94698.88;4842423;29;20168;-52
2021/12/01 07:47:06;;;;;;;1.08;0.75;;;;;;;4.90;83.61;94698.81;4841516;29;20054;-50
2021/12/01 07:49:33;;;;;;;0.85;0.60;;;;;;;4.84;83.62;94684.84;4840365;29;20132;-52
2021/12/01 07:52:33;;;;;;;1.48;0.63;;;;;;;4.86;83.19;94677.25;4834949;29;20129;-53
2021/12/01 07:55:52;;;;;;;0.88;0.60;;;;;;;4.84;82.45;94676.81;4842846;29;20058;-49
2021/12/01 07:58:19;;;;;;;1.17;0.80;;;;;;;4.90;82.48;94680.84;4844636;29;20046;-49
2021/12/01 08:00:46;;;;;;;0.98;0.60;;;;;;;4.88;81.87;94663.53;4852007;29;20144;-50
2021/12/01 08:03:13;;;;;;;0.68;0.57;;;;;;;4.87;82.08;94668.09;4819218;29;20462;-47
2021/12/01 08:05:41;;;;;;;3.83;0.70;;;;;;;5.04;82.50;94674.47;4823882;29;20086;-50
2021/12/01 08:08:10;;;;;;;0.77;0.52;;;;;;;4.97;81.94;94666.13;4829684;29;20133;-48
2021/12/01 08:10:37;;;;;;;0.88;0.50;;;;;;;5.01;81.98;94667.06;4827529;29;20052;-50
2021/12/01 08:13:05;;;;;;;1.27;0.60;;;;;;;5.15;81.69;94665.66;4838293;29;20129;-52
2021/12/01 08:15:47;;;;;;;0.80;0.57;;;;;;;5.14;81.53;94663.34;4846797;29;20412;-49
2021/12/01 08:18:15;;;;;;;0.73;0.68;;;;;;;5.14;81.19;94657.97;4842585;29;20050;-47
2021/12/01 08:20:43;;;;;;;0.85;0.50;;;;;;;5.06;80.57;94651.53;4843243;29;20050;-51
2021/12/01 08:23:11;;;;;;;1.65;0.60;;;;;;;4.94;80.05;94648.81;4833160;29;20054;-48
2021/12/01 08:25:38;;;;;;;0.63;0.55;;;;;;;5.23;80.61;94653.31;4837827;29;20058;-48
2021/12/01 08:28:05;;;;;;;0.82;0.60;;;;;;;5.05;80.48;94650.00;4838980;29;20129;-49
2021/12/01 08:30:32;;;;;;;1.25;1.15;;;;;;;5.18;80.71;94625.91;4832945;29;20052;-50
2021/12/01 08:33:00;;;;;;;2.30;0.80;;;;;;;5.30;79.73;94615.25;4844904;29;20053;-52
2021/12/01 08:35:27;;;;;;;1.35;0.75;;;;;;;5.16;80.26;94621.66;4815762;29;20050;-50
2021/12/01 08:37:54;;;;;;;0.93;0.60;;;;;;;5.14;80.04;94626.56;4833747;29;20125;-49
2021/12/01 08:40:22;;;;;;;1.23;0.70;;;;;;;5.10;80.38;94635.59;4839835;29;20054;-49
2021/12/01 08:42:49;;;;;;;1.52;0.70;;;;;;;5.13;79.29;94632.25;4821577;29;20043;-53
2021/12/01 08:45:17;;;;;;;1.40;0.70;;;;;;;5.23;79.80;94633.75;4829312;29;20119;-49
2021/12/01 08:47:44;;;;;;;1.35;0.75;;;;;;;5.20;79.30;94640.56;4835686;29;20137;-53
2021/12/01 08:50:12;;;;;;;1.15;0.75;;;;;;;5.25;79.21;94636.88;4834885;29;20104;-48
2021/12/01 08:52:39;;;;;;;1.42;0.73;;;;;;;5.28;79.10;94638.91;4840837;29;20054;-51
2021/12/01 08:55:07;;;;;;;0.70;0.60;;;;;;;5.35;78.43;94644.53;4827081;29;20050;-53
2021/12/01 08:57:34;;;;;;;1.25;0.75;;;;;;;5.35;77.93;94631.88;4836752;29;20132;-51
2021/12/01 09:00:03;;;;;;;1.52;0.90;;;;;;;5.50;77.60;94635.09;4848031;29;20057;-48
2021/12/01 09:02:30;;;;;;;1.15;0.70;;;;;;;5.64;78.20;94624.81;4832249;29;20042;-50
2021/12/01 09:04:57;;;;;;;2.05;0.70;;;;;;;5.63;76.93;94626.72;4841153;29;20173;-50
2021/12/01 09:07:24;;;;;;;0.85;0.63;;;;;;;5.67;77.42;94615.31;4833451;29;20060;-52
2021/12/01 09:09:51;;;;;;;1.25;0.90;;;;;;;5.75;77.28;94628.66;4838479;29;20412;-53
2021/12/01 09:12:20;;;;;;;0.90;0.70;;;;;;;5.73;76.67;94622.81;4835721;29;20150;-52
2021/12/01 09:14:48;;;;;;;1.75;0.60;;;;;;;5.95;76.90;94623.56;4835080;29;20046;-50
2021/12/01 09:17:15;;;;;;;1.20;0.80;;;;;;;6.07;76.71;94632.38;4812761;29;20050;-52
2021/12/01 09:19:42;;;;;;;1.52;0.80;;;;;;;6.04;75.21;94629.59;4834349;29;20057;-50
2021/12/01 09:22:09;;;;;;;1.50;0.68;;;;;;;5.97;75.25;94621.31;4829945;29;20049;-48
2021/12/01 09:24:37;;;;;;;0.95;0.60;;;;;;;6.14;75.10;94631.06;4835620;29;20042;-51
2021/12/01 09:27:04;;;;;;;1.00;0.60;;;;;;;6.08;74.02;94619.78;4840866;29;20061;-52
2021/12/01 09:29:31;;;;;;;1.38;0.77;;;;;;;6.15;74.35;94621.91;4833403;29;20416;-51
2021/12/01 09:31:58;;;;;;;1.38;0.77;;;;;;;6.41;74.96;94621.56;4843641;29;20088;-48
2021/12/01 09:34:26;;;;;;;0.70;0.63;;;;;;;6.29;74.21;94619.66;4825048;29;20106;-48
2021/12/01 09:36:53;;;;;;;1.45;0.60;;;;;;;6.41;74.55;94624.25;4832973;29;20141;-50
2021/12/01 09:39:20;;;;;;;2.15;0.70;;;;;;;6.26;74.63;94602.28;4849091;29;20046;-49
2021/12/01 09:41:48;;;;;;;1.38;0.70;;;;;;;6.28;73.84;94612.72;4845418;29;20041;-47
2021/12/01 09:44:15;;;;;;;1.23;0.70;;;;;;;6.40;74.36;94601.16;4848105;29;20046;-49
2021/12/01 09:46:42;;;;;;;1.90;0.82;;;;;;;6.41;73.34;94606.22;4830663;29;20102;-49
2021/12/01 09:49:09;;;;;;;0.52;0.52;;;;;;;6.46;74.27;94589.06;4838504;29;20409;-49
2021/12/01 09:51:37;;;;;;;1.05;0.60;;;;;;;6.37;74.04;94586.53;4839590;29;20065;-50
2021/12/01 09:54:04;;;;;;;0.93;0.70;;;;;;;6.44;73.85;94569.84;4850649;29;20038;-50
2021/12/01 09:56:33;;;;;;;1.90;0.68;;;;;;;6.48;73.08;94568.03;4837441;29;20084;-49
2021/12/01 09:59:00;;;;;;;1.38;0.70;;;;;;;6.47;70.81;94569.16;4822516;29;20060;-49
2021/12/01 10:01:29;;;;;;;3.03;0.60;;;;;;;6.65;72.36;94565.06;4822523;29;20641;-55
2021/12/01 10:03:58;;;;;;;2.83;0.60;;;;;;;6.75;72.29;94553.06;4822730;29;20043;-54
2021/12/01 10:06:26;;;;;;;0.50;0.50;;;;;;;6.65;72.14;94553.53;4826993;29;20046;-51
2021/12/01 10:08:56;;;;;;;0.77;0.50;;;;;;;6.76;71.09;94541.97;4840918;29;20053;-54
2021/12/01 10:11:29;;;;;;;0.82;0.60;;;;;;;6.87;71.91;94539.56;4846889;29;20539;-50
2021/12/01 10:13:58;;;;;;;;;;;;;;;6.87;70.85;94536.09;4840556;29;20042;-49
2021/12/01 10:16:31;;;;;;;1.70;0.70;;;;;;;6.87;70.17;94528.81;4840601;29;19940;-49
2021/12/01 10:19:02;;;;;;;2.95;0.85;;;;;;;7.00;70.31;94516.09;4835120;29;20074;-46
2021/12/01 10:21:37;;;;;;;1.73;0.80;;;;;;;7.10;68.80;94533.66;4822677;29;20137;-48
2021/12/01 10:24:10;;;;;;;1.55;0.70;;;;;;;7.17;69.27;94505.03;4836977;29;20064;-51
2021/12/01 10:26:44;;;;;;;0.93;0.63;;;;;;;7.16;69.02;94497.31;4837283;29;20134;-50
2021/12/01 10:29:12;;;;;;;;;;;;;;;7.20;67.10;94496.25;4814419;29;20050;-47
2021/12/01 10:31:52;;;;;;;0.93;0.50;;;;;;;7.30;67.73;94472.69;4830999;29;19928;-48
2021/12/01 10:34:31;;;;;;;2.38;0.82;;;;;;;7.36;68.77;94471.28;4827228;29;20755;-48
2021/12/01 10:37:07;;;;;;;1.00;0.50;;;;;;;7.29;66.86;94452.28;4829875;29;20129;-48
2021/12/01 10:39:34;;;;;;;0.85;0.60;;;;;;;7.34;68.18;94452.78;4837496;29;20054;-49
2021/12/01 10:42:07;;;;;;;0.60;0.40;;;;;;;7.35;67.62;94454.38;4838635;29;20065;-52
2021/12/01 10:44:35;;;;;;;1.30;0.50;;;;;;;7.37;67.09;94445.94;4835617;29;20125;-53
2021/12/01 10:47:09;;;;;;;0.68;0.47;;;;;;;7.37;66.92;94429.78;4829176;29;20057;-52
2021/12/01 10:49:43;;;;;;;3.03;0.60;;;;;;;7.53;66.79;94419.81;4835809;29;20042;-48
2021/12/01 10:52:31;;;;;;;0.80;0.55;;;;;;;7.53;67.10;94417.09;4838739;29;20497;-51
2021/12/01 10:55:08;;;;;;;1.75;0.40;;;;;;;7.58;66.37;94405.31;4828730;29;20038;-51
2021/12/01 10:57:54;;;;;;;0.98;0.40;;;;;;;7.70;66.38;94395.22;4825978;29;20044;-53
2021/12/01 11:00:26;;;;;;;0.68;0.40;;;;;;;8.00;65.97;94373.16;4844701;29;20103;-54
2021/12/01 11:03:03;;;;;;;0.88;0.60;;;;;;;7.88;66.17;94357.88;4833548;29;20054;-51
2021/12/01 11:05:33;;;;;;;0.88;0.60;;;;;;;8.07;66.79;94359.03;4830597;29;20053;-50
2021/12/01 11:08:20;;;;;;;0.88;0.30;;;;;;;7.96;64.80;94358.81;4828575;29;20042;-50
2021/12/01 11:11:12;;;;;;;1.77;0.30;;;;;;;8.05;66.32;94345.13;4834201;29;20054;-50
2021/12/01 11:14:07;;;;;;;0.95;0.55;;;;;;;8.05;65.38;94343.22;4827343;29;20042;-50
2021/12/01 11:16:39;;;;;;;0.88;0.57;;;;;;;8.06;66.21;94325.94;4830174;29;20057;-51
2021/12/01 11:19:08;;;;;;;1.23;0.60;;;;;;;8.08;65.97;94334.44;4847866;29;20747;-51
2021/12/01 11:21:37;;;;;;;0.95;0.50;;;;;;;8.17;66.37;94340.38;4809854;29;20140;-50
2021/12/01 11:24:11;;;;;;;0.47;0.47;;;;;;;8.23;66.47;94332.81;4833794;29;20508;-49
2021/12/01 11:26:43;;;;;;;0.30;0.30;;;;;;;8.22;66.53;94333.91;4839096;29;20504;-51
2021/12/01 11:29:30;;;;;;;0.85;0.60;;;;;;;8.01;66.54;94320.84;4843220;29;20042;-49
2021/12/01 11:31:57;;;;;;;0.47;0.30;;;;;;;7.95;66.30;94322.25;4840853;29;20084;-50
2021/12/01 11:34:24;;;;;;;1.10;0.60;;;;;;;7.90;66.38;94311.78;4833670;29;20088;-49
2021/12/01 11:36:52;;;;;;;0.40;0.38;;;;;;;8.02;66.97;94308.13;4836073;29;20494;-49
2021/12/01 11:39:24;;;;;;;1.00;0.60;;;;;;;8.11;67.13;94300.63;4839964;29;20161;-50
2021/12/01 11:41:53;;;;;;;1.38;0.50;;;;;;;7.97;67.10;94299.22;4837278;29;20060;-50
2021/12/01 11:44:22;;;;;;;0.75;0.50;;;;;;;7.86;66.93;94290.13;4838699;29;20495;-46
2021/12/01 11:46:50;;;;;;;1.15;0.80;;;;;;;8.01;67.61;94299.28;4840670;29;20501;-50
2021/12/01 11:49:21;;;;;;;5.35;1.75;;;;;;;7.93;68.01;94293.00;4835490;29;20052;-48
2021/12/01 11:51:57;;;;;;;3.28;1.45;;;;;;;7.94;67.88;94289.16;4819895;29;20073;-48
2021/12/01 11:54:27;;;;;;;1.20;0.70;;;;;;;7.86;67.81;94275.91;4813861;29;20085;-50
2021/12/01 11:57:07;;;;;;;1.48;0.93;;;;;;;7.85;67.37;94264.34;4835389;29;20058;-49
2021/12/01 11:59:39;;;;;;;0.80;0.70;;;;;;;7.92;68.37;94258.31;4829520;29;20058;-49